sensor_id;sensor_type;location;lat;lon;timestamp;P1;durP1;ratioP1;P2;durP2;ratioP2
65715;SDS011;63484;52.054;8.518;2023-03-19T00:00:30;22.20;;;10.95;;
65715;SDS011;63484;52.054;8.518;2023-03-19T00:05:32;19.88;;;10.82;;
65715;SDS011;63484;52.054;8.518;2023-03-19T00:10:36;21.20;;;10.17;;
65715;SDS011;63484;52.054;8.518;2023-03-19T00:15:38;19.38;;;10.77;;
65715;SDS011;63484;52.054;8.518;2023-03-19T00:20:41;19.80;;;10.75;;
65715;SDS011;63484;52.054;8.518;2023-03-19T00:25:43;19.67;;;11.03;;
65715;SDS011;63484;52.054;8.518;2023-03-19T00:30:44;18.98;;;11.05;;
65715;SDS011;63484;52.054;8.518;2023-03-19T00:35:47;21.15;;;11.50;;
65715;SDS011;63484;52.054;8.518;2023-03-19T00:40:49;18.10;;;11.23;;
65715;SDS011;63484;52.054;8.518;2023-03-19T00:45:50;19.88;;;11.15;;
65715;SDS011;63484;52.054;8.518;2023-03-19T00:50:53;18.60;;;11.35;;
65715;SDS011;63484;52.054;8.518;2023-03-19T00:55:55;18.87;;;10.37;;
65715;SDS011;63484;52.054;8.518;2023-03-19T01:00:56;22.13;;;11.23;;
65715;SDS011;63484;52.054;8.518;2023-03-19T01:05:59;22.15;;;11.95;;
65715;SDS011;63484;52.054;8.518;2023-03-19T01:11:04;20.05;;;10.80;;
65715;SDS011;63484;52.054;8.518;2023-03-19T01:16:07;17.85;;;10.02;;
65715;SDS011;63484;52.054;8.518;2023-03-19T01:21:11;18.57;;;10.50;;
65715;SDS011;63484;52.054;8.518;2023-03-19T01:26:18;19.25;;;10.60;;
65715;SDS011;63484;52.054;8.518;2023-03-19T01:31:22;17.90;;;9.88;;
65715;SDS011;63484;52.054;8.518;2023-03-19T01:36:30;19.17;;;10.70;;
65715;SDS011;63484;52.054;8.518;2023-03-19T01:41:35;18.98;;;9.88;;
65715;SDS011;63484;52.054;8.518;2023-03-19T01:47:04;20.05;;;10.20;;
65715;SDS011;63484;52.054;8.518;2023-03-19T01:52:17;19.98;;;9.85;;
65715;SDS011;63484;52.054;8.518;2023-03-19T01:57:42;15.63;;;9.55;;
65715;SDS011;63484;52.054;8.518;2023-03-19T02:03:02;19.15;;;10.52;;
65715;SDS011;63484;52.054;8.518;2023-03-19T02:08:18;16.48;;;9.20;;
65715;SDS011;63484;52.054;8.518;2023-03-19T02:13:22;15.38;;;8.77;;
65715;SDS011;63484;52.054;8.518;2023-03-19T02:18:24;15.68;;;8.48;;
65715;SDS011;63484;52.054;8.518;2023-03-19T02:23:31;14.10;;;8.27;;
65715;SDS011;63484;52.054;8.518;2023-03-19T02:28:48;16.45;;;8.18;;
65715;SDS011;63484;52.054;8.518;2023-03-19T02:33:57;14.68;;;8.82;;
65715;SDS011;63484;52.054;8.518;2023-03-19T02:39:00;14.40;;;8.18;;
65715;SDS011;63484;52.054;8.518;2023-03-19T02:44:04;21.42;;;9.50;;
65715;SDS011;63484;52.054;8.518;2023-03-19T02:49:07;14.48;;;8.60;;
65715;SDS011;63484;52.054;8.518;2023-03-19T02:54:08;16.48;;;9.38;;
65715;SDS011;63484;52.054;8.518;2023-03-19T02:59:11;14.27;;;8.77;;
65715;SDS011;63484;52.054;8.518;2023-03-19T03:04:13;12.63;;;8.20;;
65715;SDS011;63484;52.054;8.518;2023-03-19T03:09:15;20.67;;;9.07;;
65715;SDS011;63484;52.054;8.518;2023-03-19T03:14:18;14.30;;;8.95;;
65715;SDS011;63484;52.054;8.518;2023-03-19T03:19:20;14.85;;;8.45;;
65715;SDS011;63484;52.054;8.518;2023-03-19T03:24:22;16.67;;;8.85;;
65715;SDS011;63484;52.054;8.518;2023-03-19T03:29:25;12.57;;;7.97;;
65715;SDS011;63484;52.054;8.518;2023-03-19T03:34:26;18.03;;;8.93;;
65715;SDS011;63484;52.054;8.518;2023-03-19T03:39:30;16.10;;;8.70;;
65715;SDS011;63484;52.054;8.518;2023-03-19T03:44:32;15.73;;;8.77;;
65715;SDS011;63484;52.054;8.518;2023-03-19T03:49:34;15.82;;;9.15;;
65715;SDS011;63484;52.054;8.518;2023-03-19T03:54:35;15.88;;;8.85;;
65715;SDS011;63484;52.054;8.518;2023-03-19T03:59:38;12.93;;;7.95;;
65715;SDS011;63484;52.054;8.518;2023-03-19T04:04:40;13.25;;;7.63;;
65715;SDS011;63484;52.054;8.518;2023-03-19T04:09:42;12.45;;;8.27;;
65715;SDS011;63484;52.054;8.518;2023-03-19T04:14:46;13.23;;;7.93;;
65715;SDS011;63484;52.054;8.518;2023-03-19T04:19:47;14.70;;;7.75;;
65715;SDS011;63484;52.054;8.518;2023-03-19T04:24:49;12.88;;;8.48;;
65715;SDS011;63484;52.054;8.518;2023-03-19T04:29:52;13.50;;;8.23;;
65715;SDS011;63484;52.054;8.518;2023-03-19T04:34:54;14.27;;;8.57;;
65715;SDS011;63484;52.054;8.518;2023-03-19T04:39:57;14.43;;;7.47;;
65715;SDS011;63484;52.054;8.518;2023-03-19T04:45:00;13.25;;;8.07;;
65715;SDS011;63484;52.054;8.518;2023-03-19T04:50:02;16.93;;;8.70;;
65715;SDS011;63484;52.054;8.518;2023-03-19T04:55:07;16.08;;;8.40;;
65715;SDS011;63484;52.054;8.518;2023-03-19T05:05:24;13.85;;;7.82;;
65715;SDS011;63484;52.054;8.518;2023-03-19T05:10:26;15.20;;;8.63;;
65715;SDS011;63484;52.054;8.518;2023-03-19T05:15:29;16.60;;;8.93;;
65715;SDS011;63484;52.054;8.518;2023-03-19T05:20:38;13.75;;;8.40;;
65715;SDS011;63484;52.054;8.518;2023-03-19T05:25:49;13.95;;;7.90;;
65715;SDS011;63484;52.054;8.518;2023-03-19T05:30:58;16.55;;;8.35;;
65715;SDS011;63484;52.054;8.518;2023-03-19T05:36:08;13.27;;;8.15;;
65715;SDS011;63484;52.054;8.518;2023-03-19T05:41:22;15.00;;;8.95;;
65715;SDS011;63484;52.054;8.518;2023-03-19T05:46:32;17.55;;;8.77;;
65715;SDS011;63484;52.054;8.518;2023-03-19T05:51:34;17.58;;;9.02;;
65715;SDS011;63484;52.054;8.518;2023-03-19T05:56:37;14.35;;;8.18;;
65715;SDS011;63484;52.054;8.518;2023-03-19T06:01:59;11.50;;;7.68;;
65715;SDS011;63484;52.054;8.518;2023-03-19T06:07:01;11.95;;;7.50;;
65715;SDS011;63484;52.054;8.518;2023-03-19T06:12:04;12.43;;;6.90;;
65715;SDS011;63484;52.054;8.518;2023-03-19T06:17:26;11.65;;;7.38;;
65715;SDS011;63484;52.054;8.518;2023-03-19T06:22:32;13.35;;;7.85;;
65715;SDS011;63484;52.054;8.518;2023-03-19T06:27:33;12.95;;;7.85;;
65715;SDS011;63484;52.054;8.518;2023-03-19T06:32:51;13.38;;;9.00;;
65715;SDS011;63484;52.054;8.518;2023-03-19T06:37:53;11.48;;;6.82;;
65715;SDS011;63484;52.054;8.518;2023-03-19T06:42:55;10.13;;;6.15;;
65715;SDS011;63484;52.054;8.518;2023-03-19T06:47:58;9.38;;;5.55;;
65715;SDS011;63484;52.054;8.518;2023-03-19T06:52:59;8.47;;;5.53;;
65715;SDS011;63484;52.054;8.518;2023-03-19T06:58:01;6.47;;;4.70;;
65715;SDS011;63484;52.054;8.518;2023-03-19T07:03:04;6.18;;;4.70;;
65715;SDS011;63484;52.054;8.518;2023-03-19T07:08:06;6.88;;;4.45;;
65715;SDS011;63484;52.054;8.518;2023-03-19T07:13:11;6.55;;;4.90;;
65715;SDS011;63484;52.054;8.518;2023-03-19T07:18:14;7.95;;;4.57;;
65715;SDS011;63484;52.054;8.518;2023-03-19T07:23:15;7.35;;;4.78;;
65715;SDS011;63484;52.054;8.518;2023-03-19T07:28:16;11.75;;;6.20;;
65715;SDS011;63484;52.054;8.518;2023-03-19T07:33:19;7.07;;;4.85;;
65715;SDS011;63484;52.054;8.518;2023-03-19T07:38:21;8.25;;;3.72;;
65715;SDS011;63484;52.054;8.518;2023-03-19T07:43:22;6.25;;;2.55;;
65715;SDS011;63484;52.054;8.518;2023-03-19T07:48:26;3.75;;;2.05;;
65715;SDS011;63484;52.054;8.518;2023-03-19T07:53:27;7.90;;;2.17;;
65715;SDS011;63484;52.054;8.518;2023-03-19T07:58:29;3.53;;;1.88;;
65715;SDS011;63484;52.054;8.518;2023-03-19T08:03:32;6.25;;;1.90;;
65715;SDS011;63484;52.054;8.518;2023-03-19T08:08:33;4.10;;;2.10;;
65715;SDS011;63484;52.054;8.518;2023-03-19T08:13:35;8.70;;;2.10;;
65715;SDS011;63484;52.054;8.518;2023-03-19T08:18:38;4.53;;;2.55;;
65715;SDS011;63484;52.054;8.518;2023-03-19T08:23:39;6.50;;;2.93;;
65715;SDS011;63484;52.054;8.518;2023-03-19T08:28:40;4.15;;;2.33;;
65715;SDS011;63484;52.054;8.518;2023-03-19T08:33:43;3.40;;;1.95;;
65715;SDS011;63484;52.054;8.518;2023-03-19T08:38:45;4.57;;;2.20;;
65715;SDS011;63484;52.054;8.518;2023-03-19T08:43:46;5.10;;;2.20;;
65715;SDS011;63484;52.054;8.518;2023-03-19T08:48:49;3.55;;;1.83;;
65715;SDS011;63484;52.054;8.518;2023-03-19T08:53:50;4.57;;;1.87;;
65715;SDS011;63484;52.054;8.518;2023-03-19T08:58:52;7.63;;;1.95;;
65715;SDS011;63484;52.054;8.518;2023-03-19T09:03:54;3.70;;;1.95;;
65715;SDS011;63484;52.054;8.518;2023-03-19T09:08:56;4.80;;;2.37;;
65715;SDS011;63484;52.054;8.518;2023-03-19T09:13:57;3.97;;;2.35;;
65715;SDS011;63484;52.054;8.518;2023-03-19T09:19:00;5.50;;;2.40;;
65715;SDS011;63484;52.054;8.518;2023-03-19T09:24:02;4.88;;;2.33;;
65715;SDS011;63484;52.054;8.518;2023-03-19T09:29:03;4.78;;;2.70;;
65715;SDS011;63484;52.054;8.518;2023-03-19T09:34:06;4.85;;;3.33;;
65715;SDS011;63484;52.054;8.518;2023-03-19T09:39:07;5.63;;;3.50;;
65715;SDS011;63484;52.054;8.518;2023-03-19T09:44:10;3.95;;;3.05;;
65715;SDS011;63484;52.054;8.518;2023-03-19T09:49:19;4.68;;;2.88;;
65715;SDS011;63484;52.054;8.518;2023-03-19T09:54:28;6.90;;;3.30;;
65715;SDS011;63484;52.054;8.518;2023-03-19T09:59:32;3.60;;;2.83;;
65715;SDS011;63484;52.054;8.518;2023-03-19T10:04:38;6.97;;;3.35;;
65715;SDS011;63484;52.054;8.518;2023-03-19T10:09:46;4.13;;;2.65;;
65715;SDS011;63484;52.054;8.518;2023-03-19T10:15:00;8.32;;;4.10;;
65715;SDS011;63484;52.054;8.518;2023-03-19T10:20:06;8.50;;;6.32;;
65715;SDS011;63484;52.054;8.518;2023-03-19T10:25:10;10.57;;;6.65;;
65715;SDS011;63484;52.054;8.518;2023-03-19T10:30:18;10.45;;;5.80;;
65715;SDS011;63484;52.054;8.518;2023-03-19T10:35:23;8.23;;;5.03;;
65715;SDS011;63484;52.054;8.518;2023-03-19T10:40:33;7.78;;;4.38;;
65715;SDS011;63484;52.054;8.518;2023-03-19T10:45:43;6.03;;;4.03;;
65715;SDS011;63484;52.054;8.518;2023-03-19T10:50:47;6.03;;;3.80;;
65715;SDS011;63484;52.054;8.518;2023-03-19T10:55:52;5.40;;;3.70;;
65715;SDS011;63484;52.054;8.518;2023-03-19T11:00:56;4.65;;;3.47;;
65715;SDS011;63484;52.054;8.518;2023-03-19T11:11:06;5.40;;;3.67;;
65715;SDS011;63484;52.054;8.518;2023-03-19T11:16:22;6.53;;;3.53;;
65715;SDS011;63484;52.054;8.518;2023-03-19T11:21:27;6.05;;;3.90;;
65715;SDS011;63484;52.054;8.518;2023-03-19T11:26:31;5.00;;;3.33;;
65715;SDS011;63484;52.054;8.518;2023-03-19T11:31:33;5.65;;;4.20;;
65715;SDS011;63484;52.054;8.518;2023-03-19T11:36:43;5.60;;;4.35;;
65715;SDS011;63484;52.054;8.518;2023-03-19T11:41:56;5.22;;;3.85;;
65715;SDS011;63484;52.054;8.518;2023-03-19T11:47:11;5.35;;;3.47;;
65715;SDS011;63484;52.054;8.518;2023-03-19T11:52:24;5.75;;;3.80;;
65715;SDS011;63484;52.054;8.518;2023-03-19T11:57:36;5.65;;;3.63;;
65715;SDS011;63484;52.054;8.518;2023-03-19T12:02:59;5.45;;;4.00;;
65715;SDS011;63484;52.054;8.518;2023-03-19T12:08:20;5.53;;;3.60;;
65715;SDS011;63484;52.054;8.518;2023-03-19T12:13:32;9.20;;;3.97;;
65715;SDS011;63484;52.054;8.518;2023-03-19T12:24:15;6.28;;;4.05;;
65715;SDS011;63484;52.054;8.518;2023-03-19T12:29:29;7.03;;;3.92;;
65715;SDS011;63484;52.054;8.518;2023-03-19T12:34:43;7.20;;;4.60;;
65715;SDS011;63484;52.054;8.518;2023-03-19T12:39:55;6.38;;;4.70;;
65715;SDS011;63484;52.054;8.518;2023-03-19T12:45:11;9.38;;;6.13;;
65715;SDS011;63484;52.054;8.518;2023-03-19T12:50:23;7.45;;;5.93;;
65715;SDS011;63484;52.054;8.518;2023-03-19T12:55:30;8.43;;;5.65;;
65715;SDS011;63484;52.054;8.518;2023-03-19T13:00:38;7.80;;;5.40;;
65715;SDS011;63484;52.054;8.518;2023-03-19T13:05:46;7.47;;;5.18;;
65715;SDS011;63484;52.054;8.518;2023-03-19T13:10:54;7.20;;;5.25;;
65715;SDS011;63484;52.054;8.518;2023-03-19T13:15:59;8.27;;;5.10;;
65715;SDS011;63484;52.054;8.518;2023-03-19T13:21:13;8.90;;;5.57;;
65715;SDS011;63484;52.054;8.518;2023-03-19T13:26:23;7.88;;;5.72;;
65715;SDS011;63484;52.054;8.518;2023-03-19T13:31:25;8.65;;;6.03;;
65715;SDS011;63484;52.054;8.518;2023-03-19T13:36:28;8.40;;;5.53;;
65715;SDS011;63484;52.054;8.518;2023-03-19T13:41:48;8.75;;;5.53;;
65715;SDS011;63484;52.054;8.518;2023-03-19T13:46:51;10.15;;;5.57;;
65715;SDS011;63484;52.054;8.518;2023-03-19T13:51:53;9.63;;;5.68;;
65715;SDS011;63484;52.054;8.518;2023-03-19T13:57:14;10.30;;;6.10;;
65715;SDS011;63484;52.054;8.518;2023-03-19T14:07:53;10.57;;;6.22;;
65715;SDS011;63484;52.054;8.518;2023-03-19T14:13:04;10.45;;;5.47;;
65715;SDS011;63484;52.054;8.518;2023-03-19T14:18:09;10.13;;;5.90;;
65715;SDS011;63484;52.054;8.518;2023-03-19T14:23:19;11.77;;;6.85;;
65715;SDS011;63484;52.054;8.518;2023-03-19T14:28:25;12.20;;;6.95;;
65715;SDS011;63484;52.054;8.518;2023-03-19T14:33:38;8.57;;;5.43;;
65715;SDS011;63484;52.054;8.518;2023-03-19T14:38:45;8.40;;;4.78;;
65715;SDS011;63484;52.054;8.518;2023-03-19T14:44:04;7.72;;;5.38;;
65715;SDS011;63484;52.054;8.518;2023-03-19T14:49:35;7.07;;;5.55;;
65715;SDS011;63484;52.054;8.518;2023-03-19T14:54:49;10.00;;;6.18;;
65715;SDS011;63484;52.054;8.518;2023-03-19T14:59:57;8.10;;;4.97;;
65715;SDS011;63484;52.054;8.518;2023-03-19T15:10:01;6.50;;;4.63;;
65715;SDS011;63484;52.054;8.518;2023-03-19T15:15:10;6.18;;;4.70;;
65715;SDS011;63484;52.054;8.518;2023-03-19T15:20:23;5.38;;;4.03;;
65715;SDS011;63484;52.054;8.518;2023-03-19T15:25:25;7.63;;;4.30;;
65715;SDS011;63484;52.054;8.518;2023-03-19T15:30:28;6.85;;;4.40;;
65715;SDS011;63484;52.054;8.518;2023-03-19T15:35:31;6.82;;;4.68;;
65715;SDS011;63484;52.054;8.518;2023-03-19T15:40:34;8.77;;;4.53;;
65715;SDS011;63484;52.054;8.518;2023-03-19T15:45:39;5.77;;;3.87;;
65715;SDS011;63484;52.054;8.518;2023-03-19T15:50:45;4.20;;;2.92;;
65715;SDS011;63484;52.054;8.518;2023-03-19T15:55:50;4.80;;;2.05;;
65715;SDS011;63484;52.054;8.518;2023-03-19T16:00:56;4.40;;;2.50;;
65715;SDS011;63484;52.054;8.518;2023-03-19T16:06:01;3.70;;;2.40;;
65715;SDS011;63484;52.054;8.518;2023-03-19T16:11:13;5.05;;;2.50;;
65715;SDS011;63484;52.054;8.518;2023-03-19T16:16:18;4.68;;;2.72;;
65715;SDS011;63484;52.054;8.518;2023-03-19T16:21:21;4.38;;;2.67;;
65715;SDS011;63484;52.054;8.518;2023-03-19T16:26:28;6.35;;;3.83;;
65715;SDS011;63484;52.054;8.518;2023-03-19T16:36:44;4.13;;;2.83;;
65715;SDS011;63484;52.054;8.518;2023-03-19T16:41:48;6.15;;;3.20;;
65715;SDS011;63484;52.054;8.518;2023-03-19T16:47:15;5.53;;;3.67;;
65715;SDS011;63484;52.054;8.518;2023-03-19T16:52:18;6.13;;;4.23;;
65715;SDS011;63484;52.054;8.518;2023-03-19T16:57:22;8.13;;;5.30;;
65715;SDS011;63484;52.054;8.518;2023-03-19T17:02:25;8.23;;;5.35;;
65715;SDS011;63484;52.054;8.518;2023-03-19T17:07:28;9.80;;;6.25;;
65715;SDS011;63484;52.054;8.518;2023-03-19T17:12:29;9.00;;;6.00;;
65715;SDS011;63484;52.054;8.518;2023-03-19T17:17:32;9.02;;;5.97;;
65715;SDS011;63484;52.054;8.518;2023-03-19T17:22:34;12.40;;;8.18;;
65715;SDS011;63484;52.054;8.518;2023-03-19T17:27:35;14.32;;;7.93;;
65715;SDS011;63484;52.054;8.518;2023-03-19T17:32:39;14.70;;;8.07;;
65715;SDS011;63484;52.054;8.518;2023-03-19T17:37:43;11.57;;;7.32;;
65715;SDS011;63484;52.054;8.518;2023-03-19T17:42:45;10.15;;;6.70;;
65715;SDS011;63484;52.054;8.518;2023-03-19T17:47:48;11.65;;;7.00;;
65715;SDS011;63484;52.054;8.518;2023-03-19T17:52:52;9.95;;;6.38;;
65715;SDS011;63484;52.054;8.518;2023-03-19T17:57:54;10.15;;;6.78;;
65715;SDS011;63484;52.054;8.518;2023-03-19T18:02:57;11.02;;;6.72;;
65715;SDS011;63484;52.054;8.518;2023-03-19T18:07:59;10.63;;;6.90;;
65715;SDS011;63484;52.054;8.518;2023-03-19T18:13:00;10.93;;;6.72;;
65715;SDS011;63484;52.054;8.518;2023-03-19T18:18:04;10.55;;;6.32;;
65715;SDS011;63484;52.054;8.518;2023-03-19T18:23:07;13.13;;;7.80;;
65715;SDS011;63484;52.054;8.518;2023-03-19T18:33:14;13.07;;;7.93;;
65715;SDS011;63484;52.054;8.518;2023-03-19T18:38:20;34.42;;;20.17;;
65715;SDS011;63484;52.054;8.518;2023-03-19T18:43:23;44.35;;;24.80;;
65715;SDS011;63484;52.054;8.518;2023-03-19T18:48:26;21.25;;;11.75;;
65715;SDS011;63484;52.054;8.518;2023-03-19T18:53:30;16.80;;;10.15;;
65715;SDS011;63484;52.054;8.518;2023-03-19T18:58:31;17.13;;;10.85;;
65715;SDS011;63484;52.054;8.518;2023-03-19T19:03:35;19.08;;;10.80;;
65715;SDS011;63484;52.054;8.518;2023-03-19T19:08:37;17.07;;;9.43;;
65715;SDS011;63484;52.054;8.518;2023-03-19T19:13:38;16.15;;;9.73;;
65715;SDS011;63484;52.054;8.518;2023-03-19T19:18:44;16.45;;;9.35;;
65715;SDS011;63484;52.054;8.518;2023-03-19T19:23:46;16.48;;;10.10;;
65715;SDS011;63484;52.054;8.518;2023-03-19T19:28:47;17.38;;;10.20;;
65715;SDS011;63484;52.054;8.518;2023-03-19T19:33:51;18.20;;;10.63;;
65715;SDS011;63484;52.054;8.518;2023-03-19T19:38:53;17.75;;;9.68;;
65715;SDS011;63484;52.054;8.518;2023-03-19T19:43:55;19.75;;;12.57;;
65715;SDS011;63484;52.054;8.518;2023-03-19T19:49:01;18.55;;;11.70;;
65715;SDS011;63484;52.054;8.518;2023-03-19T19:54:03;16.45;;;11.35;;
65715;SDS011;63484;52.054;8.518;2023-03-19T19:59:05;17.33;;;10.65;;
65715;SDS011;63484;52.054;8.518;2023-03-19T20:04:09;15.13;;;8.65;;
65715;SDS011;63484;52.054;8.518;2023-03-19T20:09:13;14.10;;;8.55;;
65715;SDS011;63484;52.054;8.518;2023-03-19T20:14:15;15.02;;;8.80;;
65715;SDS011;63484;52.054;8.518;2023-03-19T20:19:19;11.95;;;7.32;;
65715;SDS011;63484;52.054;8.518;2023-03-19T20:24:21;15.30;;;7.77;;
65715;SDS011;63484;52.054;8.518;2023-03-19T20:29:22;14.23;;;8.35;;
65715;SDS011;63484;52.054;8.518;2023-03-19T20:34:25;15.48;;;8.60;;
65715;SDS011;63484;52.054;8.518;2023-03-19T20:39:26;15.43;;;8.90;;
65715;SDS011;63484;52.054;8.518;2023-03-19T20:44:27;16.10;;;8.63;;
65715;SDS011;63484;52.054;8.518;2023-03-19T20:49:31;17.67;;;9.23;;
65715;SDS011;63484;52.054;8.518;2023-03-19T20:54:32;15.20;;;8.83;;
65715;SDS011;63484;52.054;8.518;2023-03-19T20:59:34;16.13;;;9.65;;
65715;SDS011;63484;52.054;8.518;2023-03-19T21:04:37;17.33;;;9.48;;
65715;SDS011;63484;52.054;8.518;2023-03-19T21:09:38;20.10;;;10.80;;
65715;SDS011;63484;52.054;8.518;2023-03-19T21:14:40;24.45;;;11.80;;
65715;SDS011;63484;52.054;8.518;2023-03-19T21:19:42;23.70;;;12.27;;
65715;SDS011;63484;52.054;8.518;2023-03-19T21:24:44;37.85;;;17.05;;
65715;SDS011;63484;52.054;8.518;2023-03-19T21:29:46;37.58;;;16.20;;
65715;SDS011;63484;52.054;8.518;2023-03-19T21:34:50;39.70;;;17.55;;
65715;SDS011;63484;52.054;8.518;2023-03-19T21:39:53;44.20;;;18.50;;
65715;SDS011;63484;52.054;8.518;2023-03-19T21:44:55;40.08;;;17.63;;
65715;SDS011;63484;52.054;8.518;2023-03-19T21:50:00;44.28;;;18.60;;
65715;SDS011;63484;52.054;8.518;2023-03-19T21:55:02;45.05;;;18.60;;
65715;SDS011;63484;52.054;8.518;2023-03-19T22:00:05;42.58;;;17.90;;
65715;SDS011;63484;52.054;8.518;2023-03-19T22:05:17;41.33;;;17.30;;
65715;SDS011;63484;52.054;8.518;2023-03-19T22:10:21;36.95;;;15.48;;
65715;SDS011;63484;52.054;8.518;2023-03-19T22:15:30;34.47;;;14.98;;
65715;SDS011;63484;52.054;8.518;2023-03-19T22:20:35;39.17;;;15.07;;
65715;SDS011;63484;52.054;8.518;2023-03-19T22:25:37;37.45;;;15.10;;
65715;SDS011;63484;52.054;8.518;2023-03-19T22:30:41;33.85;;;14.70;;
65715;SDS011;63484;52.054;8.518;2023-03-19T22:35:44;34.03;;;13.63;;
65715;SDS011;63484;52.054;8.518;2023-03-19T22:40:48;35.58;;;15.02;;
65715;SDS011;63484;52.054;8.518;2023-03-19T22:45:52;36.50;;;13.73;;
65715;SDS011;63484;52.054;8.518;2023-03-19T22:50:57;35.40;;;15.07;;
65715;SDS011;63484;52.054;8.518;2023-03-19T22:55:59;41.00;;;14.75;;
65715;SDS011;63484;52.054;8.518;2023-03-19T23:01:01;33.97;;;13.98;;
65715;SDS011;63484;52.054;8.518;2023-03-19T23:06:09;41.05;;;15.40;;
65715;SDS011;63484;52.054;8.518;2023-03-19T23:11:14;38.33;;;15.85;;
65715;SDS011;63484;52.054;8.518;2023-03-19T23:16:18;42.42;;;14.98;;
65715;SDS011;63484;52.054;8.518;2023-03-19T23:21:23;38.00;;;15.23;;
65715;SDS011;63484;52.054;8.518;2023-03-19T23:26:25;33.72;;;13.70;;
65715;SDS011;63484;52.054;8.518;2023-03-19T23:31:28;42.72;;;15.10;;
65715;SDS011;63484;52.054;8.518;2023-03-19T23:36:31;41.60;;;15.00;;
65715;SDS011;63484;52.054;8.518;2023-03-19T23:41:33;42.55;;;15.35;;
65715;SDS011;63484;52.054;8.518;2023-03-19T23:46:36;40.25;;;15.02;;
65715;SDS011;63484;52.054;8.518;2023-03-19T23:51:39;34.78;;;15.02;;
65715;SDS011;63484;52.054;8.518;2023-03-19T23:56:41;44.03;;;15.53;;
